sensor_id;sensor_type;location;lat;lon;timestamp;pressure;altitude;pressure_sealevel;temperature;humidity
79586;BME280;69054;50.866;4.636;2023-10-09T00:01:26;101695.59;;;10.80;100.00
79586;BME280;69054;50.866;4.636;2023-10-09T00:03:52;101687.56;;;10.79;100.00
79586;BME280;69054;50.866;4.636;2023-10-09T00:06:22;101689.63;;;10.77;100.00
79586;BME280;69054;50.866;4.636;2023-10-09T00:09:02;101691.47;;;10.76;100.00
79586;BME280;69054;50.866;4.636;2023-10-09T00:11:47;101683.09;;;10.86;100.00
79586;BME280;69054;50.866;4.636;2023-10-09T00:14:14;101687.50;;;10.95;100.00
79586;BME280;69054;50.866;4.636;2023-10-09T00:16:41;101680.78;;;11.06;100.00
79586;BME280;69054;50.866;4.636;2023-10-09T00:19:14;101690.53;;;11.09;100.00
79586;BME280;69054;50.866;4.636;2023-10-09T00:21:46;101687.13;;;11.07;100.00
79586;BME280;69054;50.866;4.636;2023-10-09T00:24:13;101682.50;;;11.07;100.00
79586;BME280;69054;50.866;4.636;2023-10-09T00:26:43;101678.75;;;11.08;100.00
79586;BME280;69054;50.866;4.636;2023-10-09T00:29:12;101686.25;;;11.14;100.00
79586;BME280;69054;50.866;4.636;2023-10-09T00:31:48;101685.19;;;11.15;100.00
79586;BME280;69054;50.866;4.636;2023-10-09T00:34:20;101689.16;;;11.13;100.00
79586;BME280;69054;50.866;4.636;2023-10-09T00:36:50;101689.81;;;11.15;100.00
79586;BME280;69054;50.866;4.636;2023-10-09T00:39:16;101696.13;;;11.15;100.00
79586;BME280;69054;50.866;4.636;2023-10-09T00:41:49;101703.31;;;11.16;100.00
79586;BME280;69054;50.866;4.636;2023-10-09T00:44:15;101705.03;;;11.17;100.00
79586;BME280;69054;50.866;4.636;2023-10-09T00:46:40;101702.97;;;11.19;100.00
79586;BME280;69054;50.866;4.636;2023-10-09T00:49:08;101703.63;;;11.22;100.00
79586;BME280;69054;50.866;4.636;2023-10-09T00:51:38;101696.59;;;11.27;100.00
79586;BME280;69054;50.866;4.636;2023-10-09T00:54:07;101703.38;;;11.40;100.00
79586;BME280;69054;50.866;4.636;2023-10-09T00:56:38;101700.47;;;11.41;100.00
79586;BME280;69054;50.866;4.636;2023-10-09T00:59:07;101696.03;;;11.40;100.00
79586;BME280;69054;50.866;4.636;2023-10-09T01:01:46;101699.13;;;11.37;100.00
79586;BME280;69054;50.866;4.636;2023-10-09T01:04:38;101698.28;;;11.36;100.00
79586;BME280;69054;50.866;4.636;2023-10-09T01:07:06;101686.13;;;11.39;100.00
79586;BME280;69054;50.866;4.636;2023-10-09T01:09:42;101686.31;;;11.38;100.00
79586;BME280;69054;50.866;4.636;2023-10-09T01:12:10;101683.75;;;11.36;100.00
79586;BME280;69054;50.866;4.636;2023-10-09T01:14:43;101687.50;;;11.35;100.00
79586;BME280;69054;50.866;4.636;2023-10-09T01:17:09;101682.03;;;11.35;100.00
79586;BME280;69054;50.866;4.636;2023-10-09T01:19:35;101679.94;;;11.45;100.00
79586;BME280;69054;50.866;4.636;2023-10-09T01:22:01;101678.91;;;11.46;100.00
79586;BME280;69054;50.866;4.636;2023-10-09T01:24:37;101687.41;;;11.51;100.00
79586;BME280;69054;50.866;4.636;2023-10-09T01:27:04;101676.28;;;11.53;100.00
79586;BME280;69054;50.866;4.636;2023-10-09T01:29:36;101674.22;;;11.55;100.00
79586;BME280;69054;50.866;4.636;2023-10-09T01:32:02;101682.25;;;11.57;100.00
79586;BME280;69054;50.866;4.636;2023-10-09T01:34:31;101674.72;;;11.59;100.00
79586;BME280;69054;50.866;4.636;2023-10-09T01:37:03;101671.28;;;11.57;100.00
79586;BME280;69054;50.866;4.636;2023-10-09T01:39:31;101674.22;;;11.55;100.00
79586;BME280;69054;50.866;4.636;2023-10-09T01:41:57;101668.56;;;11.57;100.00
79586;BME280;69054;50.866;4.636;2023-10-09T01:44:31;101676.59;;;11.58;100.00
79586;BME280;69054;50.866;4.636;2023-10-09T01:47:03;101674.72;;;11.59;100.00
79586;BME280;69054;50.866;4.636;2023-10-09T01:49:42;101661.69;;;11.61;100.00
79586;BME280;69054;50.866;4.636;2023-10-09T01:52:08;101661.34;;;11.64;100.00
79586;BME280;69054;50.866;4.636;2023-10-09T01:54:39;101662.69;;;11.68;100.00
79586;BME280;69054;50.866;4.636;2023-10-09T01:57:12;101661.66;;;11.69;100.00
79586;BME280;69054;50.866;4.636;2023-10-09T01:59:42;101654.94;;;11.71;100.00
79586;BME280;69054;50.866;4.636;2023-10-09T02:02:15;101660.22;;;11.73;100.00
79586;BME280;69054;50.866;4.636;2023-10-09T02:05:04;101663.66;;;11.75;100.00
79586;BME280;69054;50.866;4.636;2023-10-09T02:07:50;101660.94;;;11.75;100.00
79586;BME280;69054;50.866;4.636;2023-10-09T02:10:20;101657.81;;;11.78;100.00
79586;BME280;69054;50.866;4.636;2023-10-09T02:13:03;101657.28;;;11.83;100.00
79586;BME280;69054;50.866;4.636;2023-10-09T02:15:33;101645.09;;;11.85;100.00
79586;BME280;69054;50.866;4.636;2023-10-09T02:18:15;101645.06;;;11.94;100.00
79586;BME280;69054;50.866;4.636;2023-10-09T02:23:27;101641.72;;;12.21;100.00
79586;BME280;69054;50.866;4.636;2023-10-09T02:26:07;101644.47;;;12.21;100.00
79586;BME280;69054;50.866;4.636;2023-10-09T02:28:37;101639.47;;;12.25;100.00
79586;BME280;69054;50.866;4.636;2023-10-09T02:31:12;101653.00;;;12.27;100.00
79586;BME280;69054;50.866;4.636;2023-10-09T02:33:38;101657.53;;;12.34;100.00
79586;BME280;69054;50.866;4.636;2023-10-09T02:36:07;101649.78;;;12.38;100.00
79586;BME280;69054;50.866;4.636;2023-10-09T02:38:34;101655.28;;;12.38;100.00
79586;BME280;69054;50.866;4.636;2023-10-09T02:41:01;101651.88;;;12.36;100.00
79586;BME280;69054;50.866;4.636;2023-10-09T02:43:33;101654.44;;;12.37;100.00
79586;BME280;69054;50.866;4.636;2023-10-09T02:46:02;101652.91;;;12.35;100.00
79586;BME280;69054;50.866;4.636;2023-10-09T02:48:39;101656.19;;;12.30;100.00
79586;BME280;69054;50.866;4.636;2023-10-09T02:51:11;101649.56;;;12.24;100.00
79586;BME280;69054;50.866;4.636;2023-10-09T02:53:43;101642.09;;;12.18;100.00
79586;BME280;69054;50.866;4.636;2023-10-09T02:56:08;101634.81;;;12.11;100.00
79586;BME280;69054;50.866;4.636;2023-10-09T02:58:41;101634.72;;;12.04;100.00
79586;BME280;69054;50.866;4.636;2023-10-09T03:01:12;101626.69;;;12.02;100.00
79586;BME280;69054;50.866;4.636;2023-10-09T03:03:40;101636.19;;;12.06;100.00
79586;BME280;69054;50.866;4.636;2023-10-09T03:06:10;101646.97;;;12.08;100.00
79586;BME280;69054;50.866;4.636;2023-10-09T03:08:38;101649.06;;;12.06;100.00
79586;BME280;69054;50.866;4.636;2023-10-09T03:11:07;101646.50;;;12.04;100.00
79586;BME280;69054;50.866;4.636;2023-10-09T03:13:42;101648.41;;;12.04;100.00
79586;BME280;69054;50.866;4.636;2023-10-09T03:16:13;101655.75;;;12.03;100.00
79586;BME280;69054;50.866;4.636;2023-10-09T03:18:49;101643.59;;;12.06;100.00
79586;BME280;69054;50.866;4.636;2023-10-09T03:21:15;101636.34;;;12.13;100.00
79586;BME280;69054;50.866;4.636;2023-10-09T03:23:45;101632.84;;;12.19;100.00
79586;BME280;69054;50.866;4.636;2023-10-09T03:26:17;101629.44;;;12.17;100.00
79586;BME280;69054;50.866;4.636;2023-10-09T03:28:47;101624.03;;;12.09;100.00
79586;BME280;69054;50.866;4.636;2023-10-09T03:31:13;101635.63;;;11.96;100.00
79586;BME280;69054;50.866;4.636;2023-10-09T03:33:39;101641.81;;;11.90;100.00
79586;BME280;69054;50.866;4.636;2023-10-09T03:36:06;101640.16;;;11.81;100.00
79586;BME280;69054;50.866;4.636;2023-10-09T03:38:38;101636.66;;;11.72;100.00
79586;BME280;69054;50.866;4.636;2023-10-09T03:41:07;101635.66;;;11.65;100.00
79586;BME280;69054;50.866;4.636;2023-10-09T03:43:36;101636.22;;;11.60;100.00
79586;BME280;69054;50.866;4.636;2023-10-09T03:46:08;101633.69;;;11.50;100.00
79586;BME280;69054;50.866;4.636;2023-10-09T03:48:54;101623.84;;;11.41;100.00
79586;BME280;69054;50.866;4.636;2023-10-09T03:51:23;101623.38;;;11.38;100.00
79586;BME280;69054;50.866;4.636;2023-10-09T03:53:50;101630.91;;;11.35;100.00
79586;BME280;69054;50.866;4.636;2023-10-09T03:56:16;101621.84;;;11.35;100.00
79586;BME280;69054;50.866;4.636;2023-10-09T03:58:46;101626.28;;;11.36;100.00
79586;BME280;69054;50.866;4.636;2023-10-09T04:01:14;101622.72;;;11.35;100.00
79586;BME280;69054;50.866;4.636;2023-10-09T04:04:04;101623.72;;;11.34;100.00
79586;BME280;69054;50.866;4.636;2023-10-09T04:06:32;101623.91;;;11.33;100.00
79586;BME280;69054;50.866;4.636;2023-10-09T04:09:04;101626.66;;;11.33;100.00
79586;BME280;69054;50.866;4.636;2023-10-09T04:11:48;101627.53;;;11.25;100.00
79586;BME280;69054;50.866;4.636;2023-10-09T04:14:22;101635.06;;;11.23;100.00
79586;BME280;69054;50.866;4.636;2023-10-09T04:17:14;101640.00;;;11.28;100.00
79586;BME280;69054;50.866;4.636;2023-10-09T04:19:55;101636.22;;;11.29;100.00
79586;BME280;69054;50.866;4.636;2023-10-09T04:22:40;101646.47;;;11.35;100.00
79586;BME280;69054;50.866;4.636;2023-10-09T04:25:24;101646.78;;;11.40;100.00
79586;BME280;69054;50.866;4.636;2023-10-09T04:27:54;101655.97;;;11.47;100.00
79586;BME280;69054;50.866;4.636;2023-10-09T04:30:38;101646.47;;;11.58;100.00
79586;BME280;69054;50.866;4.636;2023-10-09T04:33:10;101645.78;;;11.64;100.00
79586;BME280;69054;50.866;4.636;2023-10-09T04:35:38;101639.06;;;11.67;100.00
79586;BME280;69054;50.866;4.636;2023-10-09T04:38:05;101637.84;;;11.69;100.00
79586;BME280;69054;50.866;4.636;2023-10-09T04:40:32;101630.31;;;11.71;100.00
79586;BME280;69054;50.866;4.636;2023-10-09T04:43:17;101627.00;;;11.76;100.00
79586;BME280;69054;50.866;4.636;2023-10-09T04:45:47;101621.16;;;11.79;100.00
79586;BME280;69054;50.866;4.636;2023-10-09T04:48:32;101608.16;;;11.81;100.00
79586;BME280;69054;50.866;4.636;2023-10-09T04:50:59;101620.94;;;11.89;100.00
79586;BME280;69054;50.866;4.636;2023-10-09T04:53:56;101626.34;;;11.97;100.00
79586;BME280;69054;50.866;4.636;2023-10-09T04:56:41;101634.53;;;12.05;100.00
79586;BME280;69054;50.866;4.636;2023-10-09T04:59:20;101631.22;;;12.10;100.00
79586;BME280;69054;50.866;4.636;2023-10-09T05:01:50;101615.44;;;12.12;100.00
79586;BME280;69054;50.866;4.636;2023-10-09T05:04:24;101622.44;;;12.15;100.00
79586;BME280;69054;50.866;4.636;2023-10-09T05:07:04;101624.81;;;12.18;100.00
79586;BME280;69054;50.866;4.636;2023-10-09T05:09:51;101632.84;;;12.19;100.00
79586;BME280;69054;50.866;4.636;2023-10-09T05:12:33;101629.09;;;12.20;100.00
79586;BME280;69054;50.866;4.636;2023-10-09T05:14:58;101632.00;;;12.19;100.00
79586;BME280;69054;50.866;4.636;2023-10-09T05:17:38;101633.69;;;12.20;100.00
79586;BME280;69054;50.866;4.636;2023-10-09T05:20:05;101627.38;;;12.19;100.00
79586;BME280;69054;50.866;4.636;2023-10-09T05:22:50;101627.56;;;12.18;100.00
79586;BME280;69054;50.866;4.636;2023-10-09T05:25:35;101627.75;;;12.16;100.00
79586;BME280;69054;50.866;4.636;2023-10-09T05:28:19;101637.84;;;12.16;100.00
79586;BME280;69054;50.866;4.636;2023-10-09T05:30:59;101637.19;;;12.14;100.00
79586;BME280;69054;50.866;4.636;2023-10-09T05:33:34;101635.50;;;12.13;100.00
79586;BME280;69054;50.866;4.636;2023-10-09T05:36:03;101642.84;;;12.12;100.00
79586;BME280;69054;50.866;4.636;2023-10-09T05:39:01;101641.13;;;12.11;100.00
79586;BME280;69054;50.866;4.636;2023-10-09T05:42:02;101638.75;;;12.08;100.00
79586;BME280;69054;50.866;4.636;2023-10-09T05:44:35;101641.03;;;12.04;100.00
79586;BME280;69054;50.866;4.636;2023-10-09T05:47:18;101642.38;;;12.09;100.00
79586;BME280;69054;50.866;4.636;2023-10-09T05:49:59;101634.81;;;12.11;100.00
79586;BME280;69054;50.866;4.636;2023-10-09T05:52:34;101634.75;;;12.19;100.00
79586;BME280;69054;50.866;4.636;2023-10-09T05:55:06;101648.91;;;12.22;100.00
79586;BME280;69054;50.866;4.636;2023-10-09T05:57:34;101636.56;;;12.27;100.00
79586;BME280;69054;50.866;4.636;2023-10-09T06:00:19;101643.34;;;12.31;100.00
79586;BME280;69054;50.866;4.636;2023-10-09T06:03:03;101658.38;;;12.35;100.00
79586;BME280;69054;50.866;4.636;2023-10-09T06:05:50;101659.22;;;12.35;100.00
79586;BME280;69054;50.866;4.636;2023-10-09T06:08:22;101663.31;;;12.39;100.00
79586;BME280;69054;50.866;4.636;2023-10-09T06:11:10;101664.84;;;12.42;100.00
79586;BME280;69054;50.866;4.636;2023-10-09T06:13:59;101679.88;;;12.46;100.00
79586;BME280;69054;50.866;4.636;2023-10-09T06:16:37;101668.53;;;12.49;100.00
79586;BME280;69054;50.866;4.636;2023-10-09T06:19:25;101659.19;;;12.58;100.00
79586;BME280;69054;50.866;4.636;2023-10-09T06:21:56;101657.03;;;12.69;100.00
79586;BME280;69054;50.866;4.636;2023-10-09T06:24:37;101662.13;;;12.72;100.00
79586;BME280;69054;50.866;4.636;2023-10-09T06:27:21;101670.81;;;12.75;100.00
79586;BME280;69054;50.866;4.636;2023-10-09T06:29:57;101667.03;;;12.76;100.00
79586;BME280;69054;50.866;4.636;2023-10-09T06:32:42;101663.03;;;12.79;100.00
79586;BME280;69054;50.866;4.636;2023-10-09T06:35:20;101658.50;;;12.86;100.00
79586;BME280;69054;50.866;4.636;2023-10-09T06:37:52;101660.88;;;12.89;100.00
79586;BME280;69054;50.866;4.636;2023-10-09T06:40:39;101650.84;;;12.96;100.00
79586;BME280;69054;50.866;4.636;2023-10-09T06:43:23;101654.72;;;13.02;100.00
79586;BME280;69054;50.866;4.636;2023-10-09T06:48:27;101675.34;;;13.13;100.00
79586;BME280;69054;50.866;4.636;2023-10-09T06:51:09;101675.59;;;13.18;100.00
79586;BME280;69054;50.866;4.636;2023-10-09T06:53:53;101679.88;;;13.21;100.00
79586;BME280;69054;50.866;4.636;2023-10-09T06:56:22;101687.06;;;13.22;100.00
79586;BME280;69054;50.866;4.636;2023-10-09T06:59:08;101685.81;;;13.24;100.00
79586;BME280;69054;50.866;4.636;2023-10-09T07:02:07;101671.31;;;13.30;100.00
79586;BME280;69054;50.866;4.636;2023-10-09T07:04:51;101675.50;;;13.41;100.00
79586;BME280;69054;50.866;4.636;2023-10-09T07:07:20;101683.25;;;13.53;100.00
79586;BME280;69054;50.866;4.636;2023-10-09T07:09:50;101688.03;;;13.65;100.00
79586;BME280;69054;50.866;4.636;2023-10-09T07:12:34;101689.03;;;13.79;100.00
79586;BME280;69054;50.866;4.636;2023-10-09T07:15:08;101686.41;;;13.93;100.00
79586;BME280;69054;50.866;4.636;2023-10-09T07:17:33;101674.47;;;14.00;100.00
79586;BME280;69054;50.866;4.636;2023-10-09T07:19:59;101683.00;;;14.12;100.00
79586;BME280;69054;50.866;4.636;2023-10-09T07:22:43;101681.88;;;14.28;100.00
79586;BME280;69054;50.866;4.636;2023-10-09T07:25:20;101687.72;;;14.47;100.00
79586;BME280;69054;50.866;4.636;2023-10-09T07:28:05;101693.81;;;14.64;100.00
79586;BME280;69054;50.866;4.636;2023-10-09T07:30:43;101691.63;;;14.81;100.00
79586;BME280;69054;50.866;4.636;2023-10-09T07:33:09;101675.13;;;14.87;100.00
79586;BME280;69054;50.866;4.636;2023-10-09T07:35:45;101677.91;;;14.94;100.00
79586;BME280;69054;50.866;4.636;2023-10-09T07:38:20;101699.78;;;15.02;100.00
79586;BME280;69054;50.866;4.636;2023-10-09T07:40:54;101708.75;;;15.18;100.00
79586;BME280;69054;50.866;4.636;2023-10-09T07:43:28;101711.78;;;15.30;100.00
79586;BME280;69054;50.866;4.636;2023-10-09T07:46:02;101710.97;;;15.42;100.00
79586;BME280;69054;50.866;4.636;2023-10-09T07:48:30;101715.06;;;15.60;99.80
79586;BME280;69054;50.866;4.636;2023-10-09T07:51:15;101711.97;;;15.83;98.25
79586;BME280;69054;50.866;4.636;2023-10-09T07:53:41;101722.25;;;16.29;93.48
79586;BME280;69054;50.866;4.636;2023-10-09T07:56:11;101722.19;;;17.03;91.22
79586;BME280;69054;50.866;4.636;2023-10-09T07:58:39;101719.50;;;17.94;84.96
79586;BME280;69054;50.866;4.636;2023-10-09T08:01:12;101724.75;;;18.59;82.07
79586;BME280;69054;50.866;4.636;2023-10-09T08:03:46;101727.25;;;19.11;77.74
79586;BME280;69054;50.866;4.636;2023-10-09T08:06:12;101721.25;;;19.32;74.81
79586;BME280;69054;50.866;4.636;2023-10-09T08:09:11;101719.88;;;19.23;75.26
79586;BME280;69054;50.866;4.636;2023-10-09T08:14:08;101739.38;;;18.41;78.81
79586;BME280;69054;50.866;4.636;2023-10-09T08:16:53;101741.22;;;18.22;79.93
79586;BME280;69054;50.866;4.636;2023-10-09T08:19:49;101749.00;;;18.06;80.34
79586;BME280;69054;50.866;4.636;2023-10-09T08:22:29;101753.75;;;17.93;81.08
79586;BME280;69054;50.866;4.636;2023-10-09T08:24:55;101740.66;;;17.68;80.69
79586;BME280;69054;50.866;4.636;2023-10-09T08:27:24;101737.66;;;17.69;80.32
79586;BME280;69054;50.866;4.636;2023-10-09T08:30:14;101740.91;;;17.60;81.54
79586;BME280;69054;50.866;4.636;2023-10-09T08:32:42;101742.59;;;17.61;82.47
79586;BME280;69054;50.866;4.636;2023-10-09T08:35:11;101737.44;;;17.78;81.69
79586;BME280;69054;50.866;4.636;2023-10-09T08:37:56;101737.91;;;18.38;78.38
79586;BME280;69054;50.866;4.636;2023-10-09T08:40:31;101734.09;;;19.27;73.40
79586;BME280;69054;50.866;4.636;2023-10-09T08:43:07;101740.00;;;19.67;72.26
79586;BME280;69054;50.866;4.636;2023-10-09T08:45:37;101732.69;;;19.36;72.37
79586;BME280;69054;50.866;4.636;2023-10-09T08:48:08;101719.19;;;19.09;72.88
79586;BME280;69054;50.866;4.636;2023-10-09T08:50:35;101726.63;;;18.90;74.22
79586;BME280;69054;50.866;4.636;2023-10-09T08:53:01;101728.19;;;19.05;73.58
79586;BME280;69054;50.866;4.636;2023-10-09T08:55:30;101729.41;;;19.46;72.59
79586;BME280;69054;50.866;4.636;2023-10-09T08:57:56;101727.69;;;19.82;69.91
79586;BME280;69054;50.866;4.636;2023-10-09T09:00:23;101725.03;;;20.29;68.07
79586;BME280;69054;50.866;4.636;2023-10-09T09:02:54;101733.41;;;20.65;66.56
79586;BME280;69054;50.866;4.636;2023-10-09T09:05:20;101742.31;;;20.43;65.81
79586;BME280;69054;50.866;4.636;2023-10-09T09:07:46;101746.16;;;20.30;67.50
79586;BME280;69054;50.866;4.636;2023-10-09T09:10:13;101752.66;;;20.78;65.97
79586;BME280;69054;50.866;4.636;2023-10-09T09:12:48;101742.47;;;21.19;64.58
79586;BME280;69054;50.866;4.636;2023-10-09T09:15:27;101739.19;;;21.87;61.24
79586;BME280;69054;50.866;4.636;2023-10-09T09:18:04;101740.31;;;21.74;61.75
79586;BME280;69054;50.866;4.636;2023-10-09T09:20:34;101734.44;;;21.47;62.19
79586;BME280;69054;50.866;4.636;2023-10-09T09:23:09;101736.03;;;21.42;63.04
79586;BME280;69054;50.866;4.636;2023-10-09T09:25:45;101735.31;;;21.35;63.39
79586;BME280;69054;50.866;4.636;2023-10-09T09:28:13;101731.50;;;21.13;63.29
79586;BME280;69054;50.866;4.636;2023-10-09T09:30:45;101714.72;;;21.07;63.13
79586;BME280;69054;50.866;4.636;2023-10-09T09:33:26;101720.78;;;20.69;64.10
79586;BME280;69054;50.866;4.636;2023-10-09T09:36:10;101718.81;;;20.58;64.88
79586;BME280;69054;50.866;4.636;2023-10-09T09:38:38;101723.13;;;20.42;65.62
79586;BME280;69054;50.866;4.636;2023-10-09T09:41:08;101734.03;;;20.90;64.69
79586;BME280;69054;50.866;4.636;2023-10-09T09:43:36;101737.38;;;21.28;62.65
79586;BME280;69054;50.866;4.636;2023-10-09T09:46:07;101742.84;;;21.75;61.46
79586;BME280;69054;50.866;4.636;2023-10-09T09:48:37;101736.13;;;21.59;61.41
79586;BME280;69054;50.866;4.636;2023-10-09T09:51:04;101753.06;;;22.15;60.26
79586;BME280;69054;50.866;4.636;2023-10-09T09:53:34;101751.03;;;22.40;59.66
79586;BME280;69054;50.866;4.636;2023-10-09T09:56:00;101764.19;;;22.44;59.29
79586;BME280;69054;50.866;4.636;2023-10-09T09:58:28;101748.06;;;22.46;59.08
79586;BME280;69054;50.866;4.636;2023-10-09T10:01:03;101742.03;;;22.21;59.09
79586;BME280;69054;50.866;4.636;2023-10-09T10:03:50;101742.81;;;22.04;59.01
79586;BME280;69054;50.866;4.636;2023-10-09T10:06:20;101732.81;;;22.03;59.90
79586;BME280;69054;50.866;4.636;2023-10-09T10:08:48;101733.81;;;21.68;61.37
79586;BME280;69054;50.866;4.636;2023-10-09T10:14:00;101731.56;;;21.41;61.57
79586;BME280;69054;50.866;4.636;2023-10-09T10:16:30;101738.63;;;21.08;61.93
79586;BME280;69054;50.866;4.636;2023-10-09T10:19:05;101738.75;;;21.14;62.66
79586;BME280;69054;50.866;4.636;2023-10-09T10:21:36;101738.75;;;20.90;63.24
79586;BME280;69054;50.866;4.636;2023-10-09T10:24:40;101732.41;;;20.35;64.50
79586;BME280;69054;50.866;4.636;2023-10-09T10:27:22;101726.28;;;20.33;65.69
79586;BME280;69054;50.866;4.636;2023-10-09T10:32:57;101729.22;;;20.98;62.84
79586;BME280;69054;50.866;4.636;2023-10-09T10:35:34;101732.66;;;21.28;62.55
79586;BME280;69054;50.866;4.636;2023-10-09T10:38:33;101740.28;;;22.03;61.24
79586;BME280;69054;50.866;4.636;2023-10-09T10:41:24;101741.19;;;22.20;60.09
79586;BME280;69054;50.866;4.636;2023-10-09T10:43:49;101733.81;;;21.97;59.54
79586;BME280;69054;50.866;4.636;2023-10-09T10:46:22;101745.63;;;21.75;61.30
79586;BME280;69054;50.866;4.636;2023-10-09T10:48:54;101729.78;;;21.23;62.51
79586;BME280;69054;50.866;4.636;2023-10-09T10:51:26;101730.53;;;21.07;63.02
79586;BME280;69054;50.866;4.636;2023-10-09T10:54:03;101724.38;;;21.17;63.55
79586;BME280;69054;50.866;4.636;2023-10-09T10:56:48;101729.06;;;21.28;62.78
79586;BME280;69054;50.866;4.636;2023-10-09T10:59:14;101722.66;;;21.27;62.10
79586;BME280;69054;50.866;4.636;2023-10-09T11:01:39;101726.16;;;21.23;62.17
79586;BME280;69054;50.866;4.636;2023-10-09T11:04:39;101731.72;;;21.23;61.86
79586;BME280;69054;50.866;4.636;2023-10-09T11:07:05;101733.84;;;21.44;60.70
79586;BME280;69054;50.866;4.636;2023-10-09T11:12:30;101735.69;;;21.51;61.12
79586;BME280;69054;50.866;4.636;2023-10-09T11:15:07;101735.78;;;21.56;60.82
79586;BME280;69054;50.866;4.636;2023-10-09T11:18:04;101739.75;;;21.60;61.15
79586;BME280;69054;50.866;4.636;2023-10-09T11:20:39;101738.47;;;21.51;61.17
79586;BME280;69054;50.866;4.636;2023-10-09T11:23:19;101742.84;;;21.35;60.38
79586;BME280;69054;50.866;4.636;2023-10-09T11:25:55;101741.22;;;21.51;60.76
79586;BME280;69054;50.866;4.636;2023-10-09T11:28:40;101753.78;;;21.65;60.03
79586;BME280;69054;50.866;4.636;2023-10-09T11:31:15;101759.66;;;21.80;59.70
79586;BME280;69054;50.866;4.636;2023-10-09T11:33:44;101757.41;;;21.94;59.87
79586;BME280;69054;50.866;4.636;2023-10-09T11:36:10;101762.91;;;22.35;58.65
79586;BME280;69054;50.866;4.636;2023-10-09T11:38:37;101764.88;;;22.52;59.10
79586;BME280;69054;50.866;4.636;2023-10-09T11:41:13;101752.28;;;22.83;57.43
79586;BME280;69054;50.866;4.636;2023-10-09T11:43:52;101747.47;;;22.78;57.71
79586;BME280;69054;50.866;4.636;2023-10-09T11:46:20;101747.81;;;22.82;56.11
79586;BME280;69054;50.866;4.636;2023-10-09T11:49:13;101741.53;;;22.92;55.98
79586;BME280;69054;50.866;4.636;2023-10-09T11:52:08;101745.06;;;22.19;56.60
79586;BME280;69054;50.866;4.636;2023-10-09T11:54:35;101735.44;;;22.10;57.79
79586;BME280;69054;50.866;4.636;2023-10-09T11:57:01;101726.47;;;21.91;57.83
79586;BME280;69054;50.866;4.636;2023-10-09T11:59:28;101722.13;;;21.54;58.82
79586;BME280;69054;50.866;4.636;2023-10-09T12:02:00;101719.34;;;21.54;59.26
79586;BME280;69054;50.866;4.636;2023-10-09T12:04:26;101713.84;;;21.71;59.34
79586;BME280;69054;50.866;4.636;2023-10-09T12:06:56;101720.09;;;21.78;59.80
79586;BME280;69054;50.866;4.636;2023-10-09T12:09:38;101723.78;;;22.13;59.23
79586;BME280;69054;50.866;4.636;2023-10-09T12:12:05;101724.75;;;22.19;58.29
79586;BME280;69054;50.866;4.636;2023-10-09T12:14:31;101723.66;;;22.20;58.13
79586;BME280;69054;50.866;4.636;2023-10-09T12:17:00;101728.06;;;22.32;58.02
79586;BME280;69054;50.866;4.636;2023-10-09T12:19:37;101717.03;;;22.55;57.71
79586;BME280;69054;50.866;4.636;2023-10-09T12:22:05;101720.47;;;22.79;57.64
79586;BME280;69054;50.866;4.636;2023-10-09T12:24:31;101717.09;;;23.16;56.85
79586;BME280;69054;50.866;4.636;2023-10-09T12:26:58;101728.25;;;23.16;54.48
79586;BME280;69054;50.866;4.636;2023-10-09T12:29:24;101725.09;;;23.29;55.40
79586;BME280;69054;50.866;4.636;2023-10-09T12:31:51;101721.84;;;23.15;54.63
79586;BME280;69054;50.866;4.636;2023-10-09T12:34:24;101729.16;;;22.82;54.30
79586;BME280;69054;50.866;4.636;2023-10-09T12:36:55;101721.50;;;22.73;55.18
79586;BME280;69054;50.866;4.636;2023-10-09T12:39:21;101723.94;;;22.69;54.78
79586;BME280;69054;50.866;4.636;2023-10-09T12:41:50;101720.69;;;22.94;54.04
79586;BME280;69054;50.866;4.636;2023-10-09T12:44:19;101715.59;;;23.08;54.40
79586;BME280;69054;50.866;4.636;2023-10-09T12:46:47;101701.88;;;23.24;54.09
79586;BME280;69054;50.866;4.636;2023-10-09T12:49:21;101716.56;;;22.97;55.11
79586;BME280;69054;50.866;4.636;2023-10-09T12:51:54;101710.81;;;22.86;54.53
79586;BME280;69054;50.866;4.636;2023-10-09T12:54:19;101701.09;;;22.89;54.96
79586;BME280;69054;50.866;4.636;2023-10-09T12:56:56;101705.50;;;22.85;55.93
79586;BME280;69054;50.866;4.636;2023-10-09T12:59:23;101709.59;;;22.99;55.92
79586;BME280;69054;50.866;4.636;2023-10-09T13:01:50;101722.50;;;22.83;55.91
79586;BME280;69054;50.866;4.636;2023-10-09T13:04:23;101718.56;;;22.84;55.84
79586;BME280;69054;50.866;4.636;2023-10-09T13:06:48;101724.25;;;22.56;56.28
79586;BME280;69054;50.866;4.636;2023-10-09T13:09:17;101717.59;;;22.57;57.54
79586;BME280;69054;50.866;4.636;2023-10-09T13:11:58;101714.06;;;22.61;57.02
79586;BME280;69054;50.866;4.636;2023-10-09T13:14:29;101713.22;;;22.61;56.29
79586;BME280;69054;50.866;4.636;2023-10-09T13:16:59;101711.50;;;22.77;57.47
79586;BME280;69054;50.866;4.636;2023-10-09T13:19:24;101703.03;;;22.89;57.02
79586;BME280;69054;50.866;4.636;2023-10-09T13:21:50;101694.31;;;22.63;57.28
79586;BME280;69054;50.866;4.636;2023-10-09T13:24:16;101688.31;;;22.71;57.31
79586;BME280;69054;50.866;4.636;2023-10-09T13:26:45;101684.25;;;22.79;57.22
79586;BME280;69054;50.866;4.636;2023-10-09T13:29:12;101699.88;;;22.63;58.29
79586;BME280;69054;50.866;4.636;2023-10-09T13:31:39;101691.91;;;22.89;57.46
79586;BME280;69054;50.866;4.636;2023-10-09T13:34:12;101695.88;;;22.93;56.03
79586;BME280;69054;50.866;4.636;2023-10-09T13:36:40;101688.06;;;23.34;55.74